• Join FlightAware (Why Join?)
  • Login
  • US Flag 
12:15PM EDT


 

Airport Tracker/Info


-or-


 

Live Flight TrackerFlight Track Log ✈ SWA4281 ✈ 27-Sep-2013 ✈ KIND - KLAS

Flight Track Log - Related Links

Times and Time Zones

All times are in EDT time to prevent confusion due to time zone crossing. See the SWA4281 flight status page for this flight to view local times or setup timezone preferences in your user account.

Time Position Orientation Groundspeed Altitude Reporting Facility
EDT Latitude Longitude Course Direction KTS MPH feet Rate Location/Type
05:14PM 39.6667 -86.3667 229° Southwest 204 235 2,900  Level Indianapolis TRACON
05:15PM 39.6436 -86.4661 253° West 249 287 5,100 2,100 Climbing Indianapolis Center
05:16PM 39.6239 -86.5653 256° West 279 321 8,000 2,700 Climbing Indianapolis Center
05:17PM 39.6142 -86.6692 263° West 293 337 10,700 2,700 Climbing Indianapolis Center
05:18PM 39.6136 -86.8228 270° West 344 396 13,600 2,400 Climbing Indianapolis Center
05:19PM 39.6131 -86.9569 270° West 365 420 15,700 2,220 Climbing Indianapolis Center
05:20PM 39.6128 -87.0975 270° West 382 440 18,200 2,400 Climbing Indianapolis Center
05:22PM 39.6111 -87.2406 269° West 394 453 20,700 2,160 Climbing Indianapolis Center
05:23PM 39.6094 -87.3875 269° West 403 464 22,700 1,740 Climbing Indianapolis Center
05:24PM 39.6083 -87.5394 270° West 418 481 24,400 1,920 Climbing Indianapolis Center
05:25PM 39.6067 -87.7275 269° West 434 499 26,700 1,860 Climbing Indianapolis Center
05:26PM 39.6047 -87.8844 269° West 436 502 28,300 1,500 Climbing Indianapolis Center
05:27PM 39.6014 -88.0442 268° West 441 507 29,800 1,620 Climbing Indianapolis Center
05:28PM 39.5986 -88.2044 269° West 446 513 31,700 1,740 Climbing Indianapolis Center
05:29PM 39.5942 -88.3858 268° West 442 509 33,500 1,740 Climbing Indianapolis Center
05:30PM 39.5906 -88.5406 268° West 434 499 35,400 1,560 Climbing Indianapolis Center
05:31PM 39.5872 -88.6908 268° West 423 487 36,800 1,140 Climbing Indianapolis Center
05:32PM 39.5831 -88.8397 268° West 417 480 37,800 540 Climbing Indianapolis Center
05:33PM 39.5808 -88.9889 269° West 414 476 38,000 60 Climbing Indianapolis Center
05:34PM 39.5767 -89.1381 268° West 414 476 38,000  Level Indianapolis Center
05:35PM 39.5706 -89.3197 268° West 419 482 38,000  Level Indianapolis Center
05:36PM 39.5647 -89.4714 267° West 415 478 38,000  Level Indianapolis Center
05:37PM 39.5606 -89.6511 268° West 414 476 38,000  Level Kansas City Center
05:38PM 39.5542 -89.8272 267° West 411 473 38,000  Level Kansas City Center
05:39PM 39.5497 -89.9772 268° West 415 478 38,000  Level Kansas City Center
05:40PM 39.5450 -90.1258 268° West 417 480 38,000  Level Kansas City Center
05:41PM 39.5392 -90.2750 267° West 417 480 38,000  Level Kansas City Center
05:43PM 39.5336 -90.4247 267° West 419 482 38,000  Level Kansas City Center
05:44PM 39.5281 -90.5736 267° West 418 481 38,000  Level Kansas City Center
05:45PM 39.5208 -90.7511 267° West 415 478 38,000  Level Kansas City Center
05:46PM 39.5142 -90.8981 267° West 413 475 38,000  Level Kansas City Center
05:47PM 39.5089 -91.0436 267° West 411 473 38,000  Level Kansas City Center
05:48PM 39.5014 -91.1883 266° West 407 468 38,000  Level Kansas City Center
05:49PM 39.4953 -91.3350 267° West 409 471 38,000  Level Kansas City Center
05:50PM 39.4861 -91.5108 266° West 409 471 38,000  Level Kansas City Center
05:51PM 39.4786 -91.6567 266° West 408 470 38,000  Level Kansas City Center
05:52PM 39.4717 -91.8039 267° West 406 467 38,000  Level Kansas City Center
05:53PM 39.4642 -91.9497 266° West 407 468 38,000  Level Kansas City Center
05:54PM 39.4575 -92.0925 267° West 403 464 38,000  Level Kansas City Center
05:55PM 39.4492 -92.2369 266° West 404 465 38,000  Level Kansas City Center
05:56PM 39.4400 -92.4122 266° West 406 467 38,000  Level Kansas City Center
05:57PM 39.4311 -92.5592 266° West 410 472 38,000  Level Kansas City Center
05:58PM 39.4217 -92.7014 265° West 406 467 38,000  Level Kansas City Center
05:59PM 39.4139 -92.8464 266° West 404 465 38,000  Level Kansas City Center
06:00PM 39.4050 -92.9897 265° West 403 464 38,000  Level Kansas City Center
06:01PM 39.3947 -93.1636 266° West 406 467 38,000  Level Kansas City Center
06:02PM 39.3853 -93.3075 265° West 405 466 38,000  Level Kansas City Center
06:03PM 39.3786 -93.4494 267° West 401 461 38,000  Level Kansas City Center
06:04PM 39.3758 -93.5936 269° West 403 464 38,000  Level Kansas City Center
06:05PM 39.3692 -93.7475 267° West 403 464 38,000  Level Kansas City Center
06:06PM 39.3631 -93.9089 267° West 403 464 38,000 -60 Level Kansas City Center
06:07PM 39.3589 -94.0467 268° West 400 460 37,900  Descending Kansas City Center
06:08PM 39.3536 -94.1844 267° West 401 461 38,000  Climbing Kansas City Center
06:09PM 39.3469 -94.3428 267° West 398 458 38,000  Level Kansas City Center
06:10PM 39.3417 -94.4789 267° West 397 457 38,000  Level Kansas City Center
06:11PM 39.3353 -94.6367 267° West 395 455 38,000  Level Kansas City Center
06:13PM 39.3272 -94.7750 266° West 401 461 38,000  Level Kansas City Center
06:14PM 39.3197 -94.9322 267° West 398 458 38,000  Level Kansas City Center
06:15PM 39.3136 -95.0656 267° West 392 451 38,000  Level Kansas City Center
06:16PM 39.3047 -95.2333 266° West 392 451 38,000  Level Kansas City Center
06:17PM 39.2983 -95.3739 267° West 393 452 38,000  Level Kansas City Center
06:18PM 39.2919 -95.5053 266° West 392 451 38,000  Level Kansas City Center
06:19PM 39.2842 -95.6594 266° West 388 447 38,000  Level Kansas City Center
06:20PM 39.2767 -95.7922 266° West 387 445 38,000  Level Kansas City Center
06:21PM 39.2683 -95.9472 266° West 387 445 38,000  Level Kansas City Center
06:22PM 39.2611 -96.0783 266° West 384 442 38,000  Level Kansas City Center
06:23PM 39.2522 -96.2336 266° West 389 448 38,000  Level Kansas City Center
06:24PM 39.2450 -96.3656 266° West 386 444 38,000  Level Kansas City Center
06:25PM 39.2356 -96.5203 266° West 389 448 38,000  Level Kansas City Center
06:26PM 39.2250 -96.6511 264° West 385 443 38,000  Level Kansas City Center
06:27PM 39.2186 -96.7842 266° West 387 445 38,000  Level Kansas City Center
06:28PM 39.2078 -96.9389 265° West 388 447 38,000  Level Kansas City Center
06:29PM 39.1989 -97.0728 265° West 390 449 38,000  Level Kansas City Center
06:30PM 39.1914 -97.2300 267° West 395 455 38,000  Level Kansas City Center
06:31PM 39.1825 -97.3639 265° West 391 450 38,000  Level Kansas City Center
06:32PM 39.1719 -97.5167 265° West 385 443 38,000  Level Kansas City Center
06:33PM 39.1628 -97.6492 265° West 386 444 38,000  Level Kansas City Center
06:34PM 39.1519 -97.8025 265° West 387 445 38,000  Level Kansas City Center
06:35PM 39.1428 -97.9267 265° West 390 449 38,000  Level Kansas City Center
06:36PM 39.1142 -98.0892 257° West 396 456 38,000  Level Kansas City Center
06:37PM 39.0739 -98.2089 247° West 376 433 38,000  Level Kansas City Center
06:38PM 39.0325 -98.3344 247° West 379 436 38,000  Level Kansas City Center
06:39PM 38.9919 -98.4594 247° West 380 437 38,000  Level Kansas City Center
06:40PM 38.9536 -98.5853 249° West 380 437 38,000  Level Kansas City Center
06:41PM 38.9133 -98.7106 248° West 380 437 38,000  Level Kansas City Center
06:43PM 38.8681 -98.8592 249° West 375 432 38,000  Level Kansas City Center
06:44PM 38.8150 -98.9725 239° Southwest 372 428 38,000  Level Kansas City Center
06:45PM 38.7567 -99.0803 235° Southwest 369 425 38,000  Level Kansas City Center
06:46PM 38.6992 -99.1875 236° Southwest 367 422 38,000  Level Kansas City Center
06:47PM 38.6403 -99.2967 235° Southwest 372 428 38,000  Level Kansas City Center
06:48PM 38.5808 -99.4067 235° Southwest 376 433 38,000  Level Kansas City Center
06:49PM 38.5128 -99.5381 237° Southwest 372 428 38,000  Level Kansas City Center
06:50PM 38.4542 -99.6519 237° Southwest 376 433 38,000  Level Kansas City Center
06:51PM 38.4117 -99.7653 244° Southwest 373 429 38,000  Level Kansas City Center
06:52PM 38.4039 -99.9200 266° West 383 441 38,000  Level Kansas City Center
06:53PM 38.3956 -100.0508 265° West 387 445 38,000  Level Kansas City Center
06:54PM 38.3858 -100.2031 265° West 388 447 38,000  Level Kansas City Center
06:55PM 38.3800 -100.3358 267° West 391 450 38,000  Level Kansas City Center
06:56PM 38.3733 -100.4903 267° West 392 451 38,000  Level Kansas City Center
06:57PM 38.3697 -100.6214 268° West 391 450 38,000  Level Kansas City Center
06:58PM 38.3650 -100.7719 268° West 385 443 38,000  Level Kansas City Center
06:59PM 38.3606 -100.9014 268° West 384 442 38,000  Level Kansas City Center
07:00PM 38.3550 -101.0547 267° West 388 447 38,000  Level Kansas City Center
07:01PM 38.3517 -101.1639 268° West 389 448 38,000  Level Denver Center
07:02PM 38.3467 -101.2939 267° West 385 443 38,000  Level Denver Center
07:03PM 38.3406 -101.4481 267° West 391 450 38,000  Level Denver Center
07:04PM 38.3361 -101.5781 268° West 387 445 38,000  Level Denver Center
07:05PM 38.3294 -101.7269 267° West 381 438 38,000  Level Denver Center
07:06PM 38.3236 -101.8558 267° West 382 440 38,000  Level Denver Center
07:07PM 38.3178 -102.0064 267° West 383 441 38,000  Level Denver Center
07:08PM 38.3119 -102.1353 267° West 381 438 38,000  Level Denver Center
07:09PM 38.3042 -102.2867 266° West 384 442 38,000  Level Denver Center
07:10PM 38.2983 -102.4153 267° West 382 440 38,000  Level Denver Center
07:11PM 38.2914 -102.5664 267° West 385 443 38,000  Level Denver Center
07:12PM 38.2839 -102.7153 266° West 380 437 38,000  Level Denver Center
07:13PM 38.2767 -102.8650 267° West 381 438 38,000  Level Denver Center
07:15PM 38.2700 -102.9986 266° West 393 452 38,000  Level Denver Center
07:16PM 38.2617 -103.1481 266° West 388 447 38,000  Level Denver Center
07:17PM 38.2556 -103.2778 267° West 386 444 38,000  Level Denver Center
07:18PM 38.2469 -103.4281 266° West 383 441 38,000  Level Denver Center
07:19PM 38.2397 -103.5556 266° West 379 436 38,000  Level Denver Center
07:20PM 38.2308 -103.7039 266° West 379 436 38,000  Level Denver Center
07:21PM 38.2236 -103.8314 266° West 379 436 38,000  Level Denver Center
07:22PM 38.2144 -103.9800 266° West 380 437 38,000  Level Denver Center
07:23PM 38.2069 -104.1069 266° West 379 436 38,000  Level Denver Center
07:24PM 38.1961 -104.2744 265° West 375 432 38,000  Level Denver Center
07:25PM 38.1864 -104.4225 265° West 377 434 38,000  Level Denver Center
07:26PM 38.1783 -104.5500 265° West 380 437 38,000  Level Denver Center
07:27PM 38.1692 -104.7014 266° West 384 442 38,000  Level Denver Center
07:28PM 38.1597 -104.8331 265° West 390 449 38,000  Level Denver Center
07:29PM 38.1492 -104.9844 265° West 388 447 38,000  Level Denver Center
07:30PM 38.1406 -105.1089 265° West 376 433 38,000  Level Denver Center
07:31PM 38.1294 -105.2664 265° West 396 456 38,000  Level Denver Center
07:32PM 38.1200 -105.4008 265° West 400 460 38,000  Level Denver Center
07:33PM 38.1094 -105.5533 265° West 392 451 38,000  Level Denver Center
07:34PM 38.0997 -105.6883 265° West 399 459 38,000  Level Denver Center
07:35PM 38.0875 -105.8317 264° West 371 427 38,000  Level Denver Center
07:36PM 38.0778 -105.9561 264° West 369 425 38,000  Level Denver Center
07:37PM 38.0686 -106.0842 265° West 378 435 38,000  Level Denver Center
07:39PM 38.0561 -106.2322 264° West 379 436 38,000  Level Denver Center
07:40PM 38.0472 -106.3578 265° West 375 432 38,000  Level Denver Center
07:41PM 38.0350 -106.5056 264° West 377 434 38,000  Level Denver Center
07:42PM 38.0228 -106.6333 263° West 385 443 38,000  Level Denver Center
07:43PM 38.0097 -106.7842 264° West 387 445 38,000  Level Denver Center
07:44PM 37.9989 -106.9133 264° West 386 444 38,000  Level Denver Center
07:45PM 37.9864 -107.0628 264° West 382 440 38,000  Level Denver Center
07:46PM 37.9736 -107.2067 264° West 381 438 38,000  Level Denver Center
07:47PM 37.9628 -107.3367 264° West 387 445 38,000  Level Denver Center
07:48PM 37.9486 -107.4869 263° West 387 445 38,000  Level Denver Center
07:49PM 37.9375 -107.6153 264° West 384 442 38,000  Level Denver Center
07:50PM 37.9236 -107.7650 263° West 384 442 38,000  Level Denver Center
07:51PM 37.9111 -107.8950 263° West 388 447 38,000  Level Denver Center
07:52PM 37.8981 -108.0267 263° West 393 452 38,000  Level Denver Center
07:53PM 37.8842 -108.1769 263° West 387 445 38,000  Level Denver Center
07:54PM 37.8714 -108.3047 263° West 384 442 38,000  Level Denver Center
07:55PM 37.8567 -108.4542 263° West 384 442 38,000  Level Denver Center
07:56PM 37.8439 -108.5797 263° West 381 438 38,000  Level Denver Center
07:57PM 37.8294 -108.7242 263° West 374 430 38,000  Level Denver Center
07:58PM 37.8167 -108.8497 263° West 375 432 38,000  Level Denver Center
07:59PM 37.7922 -108.9950 258° West 374 430 38,000  Level Denver Center
08:00PM 37.7628 -109.1164 253° West 376 433 38,000  Level Denver Center
08:01PM 37.7231 -109.2764 253° West 375 432 38,000  Level Denver Center
08:03PM 37.6875 -109.4169 252° West 376 433 38,000  Level Denver Center
08:04PM 37.6578 -109.5353 252° West 373 429 38,000  Level Denver Center
08:05PM 37.6233 -109.6747 253° West 373 429 38,000  Level Denver Center
08:06PM 37.5925 -109.7950 252° West 376 433 38,000  Level Denver Center
08:07PM 37.5622 -109.9147 252° West 375 432 38,000 -540 Level Denver Center
08:08PM 37.5247 -110.0569 252° West 383 441 36,900 -960 Descending Denver Center
08:09PM 37.4936 -110.1797 252° West 385 443 36,000 -480 Descending Denver Center
08:10PM 37.4586 -110.3192 252° West 385 443 36,000  Level Denver Center
08:11PM 37.4256 -110.4450 252° West 381 438 36,000  Level Denver Center
08:12PM 37.3919 -110.5700 251° West 378 435 36,000 -540 Level Denver Center
08:13PM 37.3542 -110.7153 252° West 365 420 34,900 -1,020 Descending Denver Center
08:14PM 37.3225 -110.8361 252° West 366 421 34,000 -960 Descending Denver Center
08:15PM 37.2889 -110.9664 252° West 389 448 33,000 -960 Descending Denver Center
08:16PM 37.2528 -111.0956 251° West 392 451 32,100 -540 Descending Denver Center
08:17PM 37.2183 -111.2253 252° West 392 451 32,000 -60 Descending Denver Center
08:18PM 37.1828 -111.3550 251° West 394 453 32,000  Level Denver Center
08:19PM 37.1417 -111.5086 251° West 388 447 32,000  Level Denver Center
08:20PM 37.1075 -111.6378 252° West 389 448 32,000  Level Denver Center
08:21PM 37.0850 -111.7169 250° West 392 451 32,000  Level Los Angeles Center
08:22PM 37.0481 -111.8444 250° West 390 449 32,000 -540 Level Los Angeles Center
08:23PM 37.0158 -111.9653 252° West 372 428 31,000 -540 Descending Los Angeles Center
08:24PM 36.9828 -112.0853 251° West 365 420 31,000  Level Los Angeles Center
08:25PM 36.9494 -112.2050 251° West 364 419 31,000 -300 Level Los Angeles Center
08:26PM 36.9156 -112.3253 251° West 365 420 30,400 -960 Descending Los Angeles Center
08:27PM 36.8819 -112.4669 254° West 356 410 29,100 -1,140 Descending Los Angeles Center
08:28PM 36.8758 -112.5856 266° West 345 397 28,100 -600 Descending Los Angeles Center
08:29PM 36.8703 -112.7019 267° West 339 390 27,900 -600 Descending Los Angeles Center
08:30PM 36.8622 -112.8192 265° West 338 389 26,900 -1,020 Descending Los Angeles Center
08:31PM 36.8556 -112.9347 266° West 335 386 25,900 -960 Descending Los Angeles Center
08:32PM 36.8422 -113.0492 262° West 334 384 24,900 -960 Descending Los Angeles Center
08:33PM 36.8125 -113.1631 252° West 343 395 24,000 -480 Descending Los Angeles Center
08:34PM 36.7786 -113.2969 252° West 338 389 24,000  Level Los Angeles Center
08:35PM 36.7497 -113.4106 252° West 343 395 24,000  Level Los Angeles Center
08:36PM 36.7189 -113.5286 252° West 356 410 24,000  Level Los Angeles Center
08:37PM 36.6875 -113.6567 253° West 382 440 24,000 -60 Level Los Angeles Center
08:38PM 36.6533 -113.7839 252° West 386 444 23,900 -1,020 Descending Los Angeles Center
08:39PM 36.6214 -113.9078 252° West 379 436 21,900 -2,220 Descending Los Angeles Center
08:41PM 36.5781 -114.0714 252° West 358 412 19,000 -2,160 Descending Los Angeles Center
08:42PM 36.5208 -114.1992 241° Southwest 356 410 16,600 -1,920 Descending Los Angeles Center
08:43PM 36.4783 -114.2928 241° Southwest 356 410 14,700 -2,220 Descending Los Angeles Center
08:44PM 36.4283 -114.4014 240° Southwest 351 404 12,600 -1,920 Descending Los Angeles Center
08:44PM 36.4125 -114.4111 206° Southwest 355 409 12,300 -1,200 Descending Los Angeles Center
08:45PM 36.3389 -114.4372 196° South 338 389 11,400 -1,380 Descending Los Angeles Center
08:45PM 36.3036 -114.4439 189° South 338 389 10,900 -1,200 Descending Los Angeles Center
08:46PM 36.2533 -114.4611 195° South 317 365 10,200 -1,260 Descending Los Angeles Center
08:46PM 36.2208 -114.4683 190° South 312 359 9,600 -1,500 Descending Los Angeles Center
08:47PM 36.1722 -114.4858 196° South 304 350 8,700 -1,260 Descending Los Angeles Center
08:47PM 36.1436 -114.5025 205° Southwest 309 356 8,300 -720 Descending Los Angeles Center
08:48PM 36.1222 -114.5617 246° West 270 311 8,000 -240 Descending Los Angeles Center
08:48PM 36.1144 -114.5853 248° West 270 311 8,100 60 Climbing Los Angeles Center
08:49PM 36.1003 -114.6383 252° West 241 277 8,100  Level Los Angeles Center
08:49PM 36.0917 -114.6631 247° West 253 291 8,100  Level Los Angeles Center
08:50PM 36.0764 -114.7156 250° West 239 275 8,100 -120 Level Los Angeles Center
08:50PM 36.0703 -114.7575 260° West 244 281 8,000 -840 Descending Los Angeles Center
08:51PM 36.0725 -114.7967 274° West 241 277 7,300 -1,200 Descending Los Angeles Center
08:51PM 36.0733 -114.8375 271° West 238 274 6,800 -1,320 Descending Los Angeles Center
08:52PM 36.0728 -114.8764 269° West 235 270 6,000 -1,380 Descending Los Angeles Center
08:52PM 36.0733 -114.9156 271° West 231 266 5,400 -1,140 Descending Los Angeles Center
08:53PM 36.0739 -114.9506 271° West 187 215 4,900 -1,020 Descending Los Angeles Center
08:53PM 36.0719 -114.9781 265° West 206 237 4,400 -1,020 Descending Los Angeles Center
08:54PM 36.0739 -115.0092 274° West 170 196 3,900 -780 Descending Los Angeles Center
08:54PM 36.0739 -115.0339 270° West 181 208 3,600 -840 Descending Los Angeles Center
08:55PM 36.0725 -115.0628 267° West 158 182 3,100 -780 Descending Los Angeles Center
08:55PM 36.0736 -115.0861 273° West 165 190 2,800 -840 Descending Los Angeles Center
08:56PM 36.0747 -115.1128 273° West 148 170 2,300 -720 Descending Los Angeles Center
08:56PM 36.0742 -115.1450 269° West 153 176 2,100 -360 Descending Los Angeles Center
08:58PM 36.0667 -115.1500 219° Southwest  Level FlightAware Approximate
09:05PM 36.0801 -115.1523 219° Southwest  Level Estimated